Time;durP1;ratioP1;P1;durP2;ratioP2;P2;SDS_P1;SDS_P2;PMS_P1;PMS_P2;Temp;Humidity;BMP_temperature;BMP_pressure;BME280_temperature;BME280_humidity;BME280_pressure;Samples;Min_cycle;Max_cycle;Signal;HPM_P1;HPM_P2
2021/08/27 00:00:56;;;;;;;2.30;0.80;;;15.40;90.30;;;;;;5072803;28;20020;-75
2021/08/27 00:03:22;;;;;;;1.45;0.40;;;15.40;90.00;;;;;;5072619;28;20016;-75
2021/08/27 00:05:49;;;;;;;2.40;0.38;;;15.40;90.10;;;;;;5072925;28;20020;-75
2021/08/27 00:08:14;;;;;;;6.05;0.60;;;15.40;90.10;;;;;;5072153;28;20464;-75
2021/08/27 00:10:41;;;;;;;2.00;0.60;;;15.30;90.10;;;;;;5072614;28;20016;-75
2021/08/27 00:13:07;;;;;;;2.15;0.60;;;15.40;90.20;;;;;;5072152;28;20016;-76
2021/08/27 00:15:33;;;;;;;1.73;0.43;;;15.30;90.10;;;;;;5072581;28;20337;-75
2021/08/27 00:17:59;;;;;;;0.38;0.30;;;15.30;90.10;;;;;;5072309;28;20456;-75
2021/08/27 00:20:24;;;;;;;1.27;0.40;;;15.30;90.10;;;;;;5072050;28;20020;-75
2021/08/27 00:22:50;;;;;;;6.63;0.90;;;15.30;90.20;;;;;;5072244;28;20035;-75
2021/08/27 00:25:16;;;;;;;1.42;0.60;;;15.30;90.20;;;;;;5071925;28;20021;-75
2021/08/27 00:27:41;;;;;;;1.48;0.65;;;15.30;90.20;;;;;;5072230;28;20364;-75
2021/08/27 00:30:08;;;;;;;0.43;0.40;;;15.30;90.20;;;;;;5071897;28;20024;-75
2021/08/27 00:32:33;;;;;;;3.72;0.55;;;15.20;90.20;;;;;;5072296;28;20097;-75
2021/08/27 00:35:01;;;;;;;2.55;0.50;;;15.30;90.30;;;;;;5072133;28;20044;-75
2021/08/27 00:37:26;;;;;;;3.22;0.60;;;15.20;90.30;;;;;;5071350;28;20242;-75
2021/08/27 00:39:52;;;;;;;3.40;0.70;;;15.20;90.40;;;;;;5072657;28;20021;-75
2021/08/27 00:42:18;;;;;;;1.83;0.50;;;15.20;90.30;;;;;;5071599;28;20074;-75
2021/08/27 00:44:44;;;;;;;4.43;0.60;;;15.30;90.40;;;;;;5070843;28;20016;-75
2021/08/27 00:47:09;;;;;;;2.75;0.70;;;15.20;90.40;;;;;;5071666;28;20028;-75
2021/08/27 00:49:35;;;;;;;4.38;0.65;;;15.20;90.40;;;;;;5072174;28;20016;-75
2021/08/27 00:52:01;;;;;;;1.80;0.50;;;15.20;90.40;;;;;;5071919;28;20048;-75
2021/08/27 00:54:27;;;;;;;2.38;0.60;;;15.30;90.50;;;;;;5071375;28;20321;-75
2021/08/27 00:56:53;;;;;;;1.75;0.40;;;15.30;90.50;;;;;;5071653;28;20544;-74
2021/08/27 00:59:20;;;;;;;2.60;0.65;;;15.30;90.50;;;;;;5071095;28;20103;-75
2021/08/27 01:01:45;;;;;;;2.30;0.60;;;15.30;90.60;;;;;;5071824;28;20100;-75
2021/08/27 01:04:11;;;;;;;1.38;0.50;;;15.30;90.50;;;;;;5071383;28;20099;-75
2021/08/27 01:06:57;;;;;;;1.80;0.60;;;15.30;90.50;;;;;;5070773;28;20416;-74
2021/08/27 01:09:39;;;;;;;2.40;0.85;;;15.30;90.60;;;;;;5070058;28;20440;-75
2021/08/27 01:12:16;;;;;;;3.97;0.70;;;15.30;90.60;;;;;;5071849;28;20464;-74
2021/08/27 01:14:49;;;;;;;1.20;0.50;;;15.30;90.60;;;;;;5071996;28;20021;-74
2021/08/27 01:17:20;;;;;;;0.65;0.43;;;15.30;90.70;;;;;;5071054;28;20438;-74
2021/08/27 01:19:46;;;;;;;1.17;0.57;;;15.30;90.70;;;;;;5072102;28;20095;-75
2021/08/27 01:22:31;;;;;;;2.70;0.80;;;15.20;90.70;;;;;;5071230;28;20096;-74
2021/08/27 01:24:58;;;;;;;3.22;0.90;;;15.20;90.70;;;;;;5070732;28;20013;-74
2021/08/27 01:27:26;;;;;;;2.05;0.60;;;15.20;90.70;;;;;;5071151;28;20048;-75
2021/08/27 01:30:07;;;;;;;2.28;0.70;;;15.20;90.80;;;;;;5071784;28;20028;-75
2021/08/27 01:32:59;;;;;;;0.90;0.50;;;15.20;90.80;;;;;;5071267;28;20023;-74
2021/08/27 01:35:31;;;;;;;1.42;0.50;;;15.20;90.90;;;;;;5070817;28;20027;-74
2021/08/27 01:38:03;;;;;;;1.67;0.65;;;15.20;90.90;;;;;;5071207;28;20045;-74
2021/08/27 01:40:30;;;;;;;1.92;0.47;;;15.10;90.90;;;;;;5071369;28;20062;-74
2021/08/27 01:42:58;;;;;;;1.05;0.38;;;15.10;90.90;;;;;;5071861;28;20024;-74
2021/08/27 01:45:23;;;;;;;2.78;1.23;;;15.10;90.90;;;;;;5070977;28;20021;-74
2021/08/27 01:47:49;;;;;;;1.70;0.63;;;15.10;90.90;;;;;;5071953;28;20085;-75
2021/08/27 01:50:15;;;;;;;1.23;0.52;;;15.10;90.90;;;;;;5071001;28;20471;-75
2021/08/27 01:52:42;;;;;;;2.85;0.50;;;15.10;90.90;;;;;;5071537;28;20047;-75
2021/08/27 01:55:10;;;;;;;0.45;0.40;;;15.10;90.90;;;;;;5070305;28;20429;-74
2021/08/27 01:57:36;;;;;;;1.20;0.60;;;15.10;91.00;;;;;;5070804;28;20057;-74
2021/08/27 02:00:05;;;;;;;2.33;0.82;;;15.10;91.00;;;;;;5071288;28;20025;-74
2021/08/27 02:02:32;;;;;;;3.50;0.82;;;15.20;91.00;;;;;;5069295;28;20013;-74
2021/08/27 02:05:01;;;;;;;1.15;0.50;;;15.10;91.00;;;;;;5071518;28;20012;-74
2021/08/27 02:07:27;;;;;;;1.75;0.45;;;15.20;91.00;;;;;;5071433;28;20024;-75
2021/08/27 02:09:55;;;;;;;1.25;0.73;;;15.20;91.00;;;;;;5075042;28;20383;-75
2021/08/27 02:12:22;;;;;;;0.45;0.30;;;15.20;91.00;;;;;;5073172;28;20020;-75
2021/08/27 02:14:55;;;;;;;2.50;0.45;;;15.10;91.00;;;;;;5075029;28;20052;-74
2021/08/27 02:17:21;;;;;;;4.70;0.60;;;15.20;91.00;;;;;;5074338;28;20044;-74
2021/08/27 02:19:47;;;;;;;3.13;0.52;;;15.10;91.00;;;;;;5073478;28;20071;-74
2021/08/27 02:22:16;;;;;;;1.08;0.55;;;15.10;91.00;;;;;;5074878;28;20059;-74
2021/08/27 02:24:53;;;;;;;3.85;0.70;;;15.10;91.00;;;;;;5074736;28;20017;-74
2021/08/27 02:27:21;;;;;;;2.28;0.88;;;15.10;91.00;;;;;;5074228;28;20468;-74
2021/08/27 02:29:50;;;;;;;2.97;0.82;;;15.20;91.00;;;;;;5074779;28;20020;-75
2021/08/27 02:32:17;;;;;;;1.08;0.50;;;15.20;91.00;;;;;;5073904;28;20028;-76
2021/08/27 02:34:45;;;;;;;1.10;0.52;;;15.20;91.00;;;;;;5073664;28;20021;-75
2021/08/27 02:37:15;;;;;;;1.65;0.70;;;15.20;91.00;;;;;;5074365;28;20041;-76
2021/08/27 02:39:41;;;;;;;2.40;0.77;;;15.20;90.90;;;;;;5074647;28;20468;-76
2021/08/27 02:42:07;;;;;;;1.40;0.50;;;15.20;90.90;;;;;;5074665;28;20074;-75
2021/08/27 02:44:33;;;;;;;3.03;0.60;;;15.20;90.90;;;;;;5073925;28;20013;-76
2021/08/27 02:46:58;;;;;;;2.28;0.50;;;15.20;91.00;;;;;;5074236;28;20103;-76
2021/08/27 02:49:24;;;;;;;1.00;0.57;;;15.10;91.00;;;;;;5073899;28;20357;-75
2021/08/27 02:51:52;;;;;;;2.03;0.50;;;15.10;91.10;;;;;;5074200;28;20134;-75
2021/08/27 02:54:21;;;;;;;1.70;0.50;;;15.10;91.10;;;;;;5073509;28;20028;-74
2021/08/27 02:56:51;;;;;;;2.70;0.70;;;15.10;91.10;;;;;;5073044;28;20114;-74
2021/08/27 02:59:19;;;;;;;1.67;0.70;;;15.10;91.20;;;;;;5074202;28;20028;-75
2021/08/27 03:01:51;;;;;;;4.45;0.60;;;15.00;91.20;;;;;;5072854;28;20065;-75
2021/08/27 03:04:44;;;;;;;2.55;0.65;;;15.00;91.20;;;;;;5073845;28;20063;-74
2021/08/27 03:07:13;;;;;;;1.55;0.60;;;15.00;91.20;;;;;;5074205;28;20021;-76
2021/08/27 03:09:50;;;;;;;1.52;0.55;;;15.00;91.20;;;;;;5073512;28;20538;-75
2021/08/27 03:12:18;;;;;;;2.15;0.77;;;15.00;91.20;;;;;;5073967;28;20024;-75
2021/08/27 03:14:56;;;;;;;1.33;0.45;;;15.00;91.10;;;;;;5073989;28;20099;-75
2021/08/27 03:17:25;;;;;;;3.67;0.60;;;15.10;91.10;;;;;;5064674;28;20086;-75
2021/08/27 03:20:02;;;;;;;1.33;0.60;;;15.10;91.00;;;;;;5053520;28;20464;-74
2021/08/27 03:22:38;;;;;;;0.57;0.50;;;15.20;91.00;;;;;;5053243;28;20103;-75
2021/08/27 03:25:07;;;;;;;1.17;0.40;;;15.20;91.00;;;;;;5053673;28;20460;-75
2021/08/27 03:27:44;;;;;;;1.65;0.40;;;15.20;91.00;;;;;;5053043;28;20021;-74
2021/08/27 03:30:15;;;;;;;2.50;0.80;;;15.20;91.00;;;;;;5052521;28;20067;-75
2021/08/27 03:32:43;;;;;;;;;;;15.20;90.90;;;;;;5053722;28;20017;-75
2021/08/27 03:35:15;;;;;;;1.98;0.60;;;15.20;90.90;;;;;;5053289;28;19939;-75
2021/08/27 03:37:42;;;;;;;0.57;0.40;;;15.20;90.90;;;;;;5052529;28;20052;-76
2021/08/27 03:40:10;;;;;;;2.70;0.40;;;15.20;90.90;;;;;;5053575;28;20058;-76
2021/08/27 03:42:37;;;;;;;2.95;0.57;;;15.30;90.90;;;;;;5052811;28;20495;-74
2021/08/27 03:45:03;;;;;;;1.00;0.60;;;15.30;90.80;;;;;;5053438;28;20062;-74
2021/08/27 03:47:29;;;;;;;2.08;0.70;;;15.30;90.80;;;;;;5051430;28;20036;-76
2021/08/27 03:49:55;;;;;;;1.17;0.63;;;15.40;90.80;;;;;;5053260;28;20021;-74
2021/08/27 03:52:22;;;;;;;1.15;0.50;;;15.40;90.80;;;;;;5052365;28;20024;-76
2021/08/27 03:54:49;;;;;;;2.72;0.60;;;15.40;90.80;;;;;;5051837;28;20021;-75
2021/08/27 03:57:15;;;;;;;1.10;0.63;;;15.40;90.80;;;;;;5053133;28;20023;-75
2021/08/27 03:59:41;;;;;;;3.08;0.80;;;15.40;90.90;;;;;;5052561;28;20035;-75
2021/08/27 04:02:12;;;;;;;1.33;0.40;;;15.40;90.90;;;;;;5051735;28;20540;-75
2021/08/27 04:04:38;;;;;;;1.33;0.53;;;15.40;90.90;;;;;;5052461;28;20083;-75
2021/08/27 04:07:03;;;;;;;1.92;0.70;;;15.30;90.90;;;;;;5052618;28;20021;-75
2021/08/27 04:09:31;;;;;;;3.90;0.68;;;15.30;90.90;;;;;;5052453;28;20093;-75
2021/08/27 04:11:58;;;;;;;2.25;0.57;;;15.30;91.00;;;;;;5052820;28;20021;-75
2021/08/27 04:14:24;;;;;;;3.65;0.57;;;15.20;91.00;;;;;;5052027;28;20017;-75
2021/08/27 04:16:50;;;;;;;1.70;0.45;;;15.20;91.10;;;;;;5052386;28;20072;-75
2021/08/27 04:19:16;;;;;;;3.00;0.85;;;15.20;91.20;;;;;;5052719;28;20362;-75
2021/08/27 04:21:42;;;;;;;2.20;0.73;;;15.10;91.20;;;;;;5052080;28;20024;-75
2021/08/27 04:24:09;;;;;;;2.40;0.70;;;15.10;91.30;;;;;;5052573;28;20024;-74
2021/08/27 04:26:35;;;;;;;1.98;0.50;;;15.10;91.30;;;;;;5051952;28;20483;-74
2021/08/27 04:29:01;;;;;;;2.13;0.95;;;15.10;91.30;;;;;;5052577;28;20021;-74
2021/08/27 04:31:27;;;;;;;2.45;0.80;;;15.10;91.30;;;;;;5051273;28;20104;-75
2021/08/27 04:33:53;;;;;;;1.65;0.70;;;15.10;91.40;;;;;;5047442;28;20040;-74
2021/08/27 04:36:19;;;;;;;1.45;0.80;;;15.10;91.40;;;;;;5045431;28;20020;-75
2021/08/27 04:38:45;;;;;;;3.22;1.10;;;15.10;91.40;;;;;;5035035;28;20049;-76
2021/08/27 04:41:10;;;;;;;1.23;0.60;;;15.10;91.40;;;;;;5035985;28;20067;-76
2021/08/27 04:43:36;;;;;;;0.90;0.50;;;15.00;91.40;;;;;;5035104;28;20108;-75
2021/08/27 04:46:02;;;;;;;1.17;0.60;;;15.10;91.50;;;;;;5037081;28;20108;-74
2021/08/27 04:48:28;;;;;;;2.40;0.73;;;15.00;91.50;;;;;;5039258;28;20021;-74
2021/08/27 04:50:53;;;;;;;2.45;0.45;;;15.00;91.50;;;;;;5045201;28;20035;-75
2021/08/27 04:53:19;;;;;;;2.38;0.70;;;15.00;91.50;;;;;;5038491;28;20436;-75
2021/08/27 04:55:45;;;;;;;5.28;0.77;;;15.00;91.50;;;;;;5038443;28;20264;-75
2021/08/27 04:58:10;;;;;;;1.85;0.68;;;15.00;91.40;;;;;;5057513;28;20079;-75
2021/08/27 05:00:37;;;;;;;0.95;0.40;;;15.10;91.50;;;;;;5044902;28;20067;-75
2021/08/27 05:03:03;;;;;;;0.95;0.45;;;15.00;91.50;;;;;;5037281;28;20348;-74
2021/08/27 05:05:28;;;;;;;2.75;0.50;;;15.00;91.60;;;;;;5051042;28;20449;-75
2021/08/27 05:07:54;;;;;;;2.38;0.70;;;15.00;91.60;;;;;;5051890;28;20017;-75
2021/08/27 05:10:20;;;;;;;4.03;1.00;;;15.00;91.50;;;;;;5044966;28;20090;-75
2021/08/27 05:12:46;;;;;;;2.38;0.60;;;15.00;91.50;;;;;;5031312;28;20045;-75
2021/08/27 05:15:12;;;;;;;3.60;0.60;;;15.10;91.50;;;;;;5031788;28;20013;-75
2021/08/27 05:17:39;;;;;;;2.17;0.70;;;15.10;91.50;;;;;;5031122;28;20029;-75
2021/08/27 05:20:06;;;;;;;3.42;0.95;;;15.10;91.50;;;;;;5050286;28;20020;-73
2021/08/27 05:22:32;;;;;;;3.25;0.57;;;15.20;91.50;;;;;;5050964;28;20021;-75
2021/08/27 05:24:58;;;;;;;1.20;0.40;;;15.20;91.40;;;;;;5051815;28;20048;-74
2021/08/27 05:27:24;;;;;;;1.15;0.40;;;15.30;91.40;;;;;;5051155;28;20053;-75
2021/08/27 05:29:50;;;;;;;2.15;0.45;;;15.30;91.30;;;;;;5049124;28;20112;-75
2021/08/27 05:32:15;;;;;;;0.52;0.32;;;15.40;91.30;;;;;;5051219;28;20013;-75
2021/08/27 05:34:42;;;;;;;2.95;0.57;;;15.40;91.30;;;;;;5051067;28;20021;-75
2021/08/27 05:37:08;;;;;;;6.57;0.80;;;15.40;91.30;;;;;;5051277;28;20111;-76
2021/08/27 05:39:34;;;;;;;1.65;0.70;;;15.40;91.40;;;;;;5050886;28;20028;-76
2021/08/27 05:42:00;;;;;;;1.23;0.60;;;15.40;91.40;;;;;;5051963;28;20065;-76
2021/08/27 05:44:26;;;;;;;1.98;0.60;;;15.40;91.40;;;;;;5055329;28;20097;-76
2021/08/27 05:46:52;;;;;;;4.43;0.77;;;15.40;91.50;;;;;;5053588;28;20025;-75
2021/08/27 05:49:18;;;;;;;1.70;0.43;;;15.40;91.40;;;;;;5055318;28;20476;-76
2021/08/27 05:51:43;;;;;;;0.50;0.50;;;15.50;91.40;;;;;;5054440;28;20024;-75
2021/08/27 05:54:09;;;;;;;1.98;0.80;;;15.60;91.70;;;;;;5055816;28;20105;-76
2021/08/27 05:56:35;;;;;;;2.40;0.70;;;15.60;91.40;;;;;;5054418;28;20108;-76
2021/08/27 05:59:02;;;;;;;4.60;0.82;;;15.60;91.30;;;;;;5055317;28;20028;-76
2021/08/27 06:01:28;;;;;;;3.30;0.85;;;15.70;91.30;;;;;;5055425;28;20017;-76
2021/08/27 06:03:53;;;;;;;5.07;1.08;;;15.70;91.20;;;;;;5055004;28;20170;-76
2021/08/27 06:06:19;;;;;;;1.38;0.60;;;15.80;91.20;;;;;;5053909;28;20024;-76
2021/08/27 06:08:44;;;;;;;1.27;0.60;;;15.80;91.20;;;;;;5053198;28;20021;-76
2021/08/27 06:11:10;;;;;;;2.53;0.70;;;15.80;91.30;;;;;;5054995;28;20025;-76
2021/08/27 06:13:36;;;;;;;2.40;0.52;;;15.80;91.30;;;;;;5054452;28;20450;-76
2021/08/27 06:16:02;;;;;;;3.42;0.73;;;15.80;91.30;;;;;;5055113;28;20043;-76
2021/08/27 06:18:28;;;;;;;0.80;0.60;;;15.90;91.30;;;;;;5054652;28;20369;-75
2021/08/27 06:20:53;;;;;;;4.22;1.00;;;15.90;91.30;;;;;;5054461;28;20021;-75
2021/08/27 06:23:19;;;;;;;1.77;0.65;;;15.90;91.30;;;;;;5055013;28;20095;-75
2021/08/27 06:25:45;;;;;;;2.05;0.38;;;15.90;91.20;;;;;;5054156;28;20020;-75
2021/08/27 06:28:11;;;;;;;2.47;0.75;;;15.90;91.20;;;;;;5053458;28;20021;-76
2021/08/27 06:30:36;;;;;;;1.15;0.80;;;16.00;91.20;;;;;;5054250;28;20048;-76
2021/08/27 06:33:02;;;;;;;2.15;0.80;;;16.10;91.20;;;;;;5054689;28;20066;-75
2021/08/27 06:35:31;;;;;;;2.33;0.68;;;16.20;91.20;;;;;;5054564;28;20024;-75
2021/08/27 06:40:42;;;;;;;0.80;0.50;;;16.20;91.10;;;;;;5054065;28;20107;-76
2021/08/27 06:43:08;;;;;;;1.88;0.63;;;16.30;91.10;;;;;;5054256;28;20098;-76
2021/08/27 06:45:34;;;;;;;2.97;0.80;;;16.20;91.00;;;;;;5053674;28;20453;-75
2021/08/27 06:47:59;;;;;;;1.38;0.63;;;16.30;91.00;;;;;;5054790;28;20423;-75
2021/08/27 06:50:25;;;;;;;1.55;0.60;;;16.40;90.90;;;;;;5054365;28;20025;-75
2021/08/27 06:52:52;;;;;;;0.98;0.40;;;16.50;90.90;;;;;;5052331;28;20325;-76
2021/08/27 06:55:18;;;;;;;2.35;0.57;;;16.50;90.90;;;;;;5054018;28;20368;-75
2021/08/27 06:57:44;;;;;;;0.65;0.43;;;16.60;90.80;;;;;;5053331;28;20025;-76
2021/08/27 07:00:10;;;;;;;1.85;0.60;;;16.60;90.80;;;;;;5054272;28;20150;-75
2021/08/27 07:02:36;;;;;;;2.03;0.70;;;16.60;90.80;;;;;;5052473;28;20035;-73
2021/08/27 07:05:02;;;;;;;3.65;0.60;;;16.60;90.70;;;;;;5054089;28;20433;-75
2021/08/27 07:07:27;;;;;;;2.25;0.50;;;16.70;90.70;;;;;;5054114;28;20082;-75
2021/08/27 07:09:53;;;;;;;2.47;0.70;;;16.80;90.70;;;;;;5053694;28;20094;-75
2021/08/27 07:12:19;;;;;;;2.90;0.70;;;16.80;90.70;;;;;;5054231;28;20047;-75
2021/08/27 07:14:49;;;;;;;1.58;0.40;;;16.80;90.60;;;;;;5053369;28;20411;-75
2021/08/27 07:17:14;;;;;;;0.63;0.30;;;16.80;90.60;;;;;;5053591;28;20326;-75
2021/08/27 07:19:40;;;;;;;0.90;0.52;;;16.80;90.60;;;;;;5053275;28;20020;-75
2021/08/27 07:22:06;;;;;;;2.10;0.60;;;16.90;90.90;;;;;;5053554;28;20082;-75
2021/08/27 07:24:31;;;;;;;1.65;0.65;;;16.90;90.60;;;;;;5053725;28;20032;-74
2021/08/27 07:26:57;;;;;;;1.77;0.52;;;16.90;90.50;;;;;;5051888;28;20238;-75
2021/08/27 07:29:23;;;;;;;1.38;0.52;;;17.00;90.50;;;;;;5053355;28;20473;-75
2021/08/27 07:31:48;;;;;;;1.20;0.30;;;17.10;90.50;;;;;;5052723;28;20017;-75
2021/08/27 07:34:14;;;;;;;1.60;0.43;;;17.20;90.40;;;;;;5053391;28;20025;-75
2021/08/27 07:36:41;;;;;;;2.00;0.63;;;17.20;90.30;;;;;;5052975;28;20021;-75
2021/08/27 07:39:06;;;;;;;2.63;0.80;;;17.30;90.20;;;;;;5051995;28;20076;-75
2021/08/27 07:41:32;;;;;;;1.58;0.70;;;17.30;90.20;;;;;;5053190;28;20049;-75
2021/08/27 07:43:59;;;;;;;0.75;0.50;;;17.40;90.10;;;;;;5052741;28;20017;-75
2021/08/27 07:46:24;;;;;;;1.85;0.70;;;17.50;90.10;;;;;;5053009;28;20413;-75
2021/08/27 07:48:50;;;;;;;1.90;0.60;;;17.50;90.00;;;;;;5052490;28;20056;-75
2021/08/27 07:51:16;;;;;;;4.28;1.00;;;17.60;90.00;;;;;;5053138;28;20121;-76
2021/08/27 07:53:42;;;;;;;0.77;0.40;;;17.70;89.90;;;;;;5052597;28;20082;-77
2021/08/27 07:56:08;;;;;;;2.00;0.85;;;17.70;89.70;;;;;;5053374;28;20021;-75
2021/08/27 07:58:33;;;;;;;1.90;0.60;;;17.80;89.60;;;;;;5053132;28;20025;-75
2021/08/27 08:00:59;;;;;;;4.22;0.82;;;17.70;89.50;;;;;;5052376;28;20028;-75
2021/08/27 08:03:25;;;;;;;3.05;0.90;;;17.80;89.60;;;;;;5052958;28;20023;-75
2021/08/27 08:05:51;;;;;;;3.15;0.73;;;17.80;89.50;;;;;;5051266;28;20032;-75
2021/08/27 08:08:16;;;;;;;1.77;0.50;;;17.80;89.50;;;;;;5052868;28;20025;-74
2021/08/27 08:10:42;;;;;;;2.65;0.70;;;17.80;89.60;;;;;;5052172;28;20062;-74
2021/08/27 08:13:07;;;;;;;1.38;0.68;;;17.90;89.60;;;;;;5052494;28;20481;-75
2021/08/27 08:15:33;;;;;;;1.58;0.70;;;17.80;89.60;;;;;;5052877;28;20314;-75
2021/08/27 08:18:00;;;;;;;2.10;0.73;;;17.90;89.60;;;;;;5052097;28;20236;-75
2021/08/27 08:20:26;;;;;;;2.40;0.90;;;17.90;89.60;;;;;;5052699;28;20032;-75
2021/08/27 08:22:51;;;;;;;2.72;0.80;;;17.90;89.60;;;;;;5051528;28;20021;-75
2021/08/27 08:25:17;;;;;;;2.47;0.80;;;17.90;89.70;;;;;;5068100;28;20041;-75
2021/08/27 08:27:43;;;;;;;6.40;1.20;;;17.80;89.80;;;;;;5051909;28;20027;-75
2021/08/27 08:30:09;;;;;;;1.48;0.82;;;17.80;90.00;;;;;;5052515;28;20021;-74
2021/08/27 08:32:35;;;;;;;2.92;0.90;;;17.70;90.00;;;;;;5052336;28;20009;-74
2021/08/27 08:35:03;;;;;;;4.55;0.80;;;17.60;90.10;;;;;;5050373;28;20414;-75
2021/08/27 08:37:28;;;;;;;2.38;0.90;;;17.60;90.20;;;;;;5052311;28;20044;-75
2021/08/27 08:39:54;;;;;;;1.27;0.65;;;17.60;90.20;;;;;;5051529;28;20025;-75
2021/08/27 08:42:20;;;;;;;1.80;0.50;;;17.60;90.20;;;;;;5052335;28;20025;-76
2021/08/27 08:44:46;;;;;;;3.85;0.68;;;17.60;90.20;;;;;;5051550;28;20063;-75
2021/08/27 08:47:12;;;;;;;1.40;0.63;;;17.70;90.10;;;;;;5052266;28;20396;-75
2021/08/27 08:49:39;;;;;;;1.20;0.50;;;17.70;90.00;;;;;;5052146;28;20048;-75
2021/08/27 08:52:07;;;;;;;3.50;0.90;;;17.80;89.90;;;;;;5051517;28;20066;-75
2021/08/27 08:54:33;;;;;;;2.58;1.27;;;17.90;89.70;;;;;;5052006;28;20032;-75
2021/08/27 08:56:58;;;;;;;1.30;0.70;;;18.00;89.30;;;;;;5051413;28;20025;-74
2021/08/27 08:59:25;;;;;;;3.55;1.23;;;18.20;88.90;;;;;;5051721;28;20017;-74
2021/08/27 09:01:50;;;;;;;2.42;0.65;;;18.40;88.30;;;;;;5051499;28;20058;-76
2021/08/27 09:04:16;;;;;;;3.05;1.15;;;18.50;87.70;;;;;;5052137;28;20013;-75
2021/08/27 09:06:42;;;;;;;1.65;0.73;;;18.60;87.50;;;;;;5052011;28;20411;-79
2021/08/27 09:09:08;;;;;;;1.85;0.80;;;18.60;87.30;;;;;;5051927;28;20062;-75
2021/08/27 09:11:34;;;;;;;2.65;1.00;;;18.50;87.40;;;;;;5052156;28;20017;-76
2021/08/27 09:14:02;;;;;;;3.88;0.65;;;18.50;87.50;;;;;;5051617;28;20152;-75
2021/08/27 09:16:36;;;;;;;1.80;0.70;;;18.40;87.60;;;;;;5051591;28;20029;-75
2021/08/27 09:19:02;;;;;;;2.70;1.10;;;18.40;87.80;;;;;;5051124;28;20436;-76
2021/08/27 09:21:36;;;;;;;2.83;0.70;;;18.40;87.90;;;;;;5052244;28;20021;-76
2021/08/27 09:24:15;;;;;;;2.70;0.80;;;18.50;87.70;;;;;;5049797;28;20376;-75
2021/08/27 09:26:43;;;;;;;3.83;1.00;;;18.60;87.30;;;;;;5052032;28;20020;-75
2021/08/27 09:29:10;;;;;;;3.20;0.88;;;18.60;86.80;;;;;;5051681;28;20047;-76
2021/08/27 09:31:38;;;;;;;2.85;0.63;;;18.70;86.70;;;;;;5051814;28;20025;-76
2021/08/27 09:34:05;;;;;;;3.92;0.80;;;18.80;86.50;;;;;;5049758;28;20228;-75
2021/08/27 09:36:32;;;;;;;5.55;1.10;;;19.00;86.10;;;;;;5051671;28;20100;-75
2021/08/27 09:39:11;;;;;;;1.63;0.52;;;19.10;85.80;;;;;;5050544;28;20128;-76
2021/08/27 09:41:37;;;;;;;0.95;0.63;;;19.10;85.60;;;;;;5051651;28;20025;-75
2021/08/27 09:44:04;;;;;;;2.83;1.00;;;19.10;85.60;;;;;;5051123;28;20021;-76
2021/08/27 09:46:41;;;;;;;1.90;0.52;;;19.10;85.60;;;;;;5051656;28;20063;-76
2021/08/27 09:49:27;;;;;;;6.85;1.02;;;19.10;85.50;;;;;;5050839;28;20017;-76
2021/08/27 09:51:53;;;;;;;2.72;0.55;;;19.00;85.80;;;;;;5051099;28;20028;-74
2021/08/27 09:54:30;;;;;;;2.80;0.63;;;18.90;86.10;;;;;;5051884;28;20105;-77
2021/08/27 09:57:01;;;;;;;3.00;0.98;;;18.90;86.10;;;;;;5051190;28;20123;-74
2021/08/27 09:59:52;;;;;;;2.30;0.70;;;18.90;85.90;;;;;;5051333;28;20052;-75
2021/08/27 10:02:29;;;;;;;2.38;0.75;;;18.90;85.90;;;;;;5050038;28;20021;-74
2021/08/27 10:04:57;;;;;;;2.97;0.70;;;19.10;85.70;;;;;;5050937;28;20025;-74
2021/08/27 10:07:35;;;;;;;4.18;1.10;;;19.30;85.00;;;;;;5051457;28;20118;-75
2021/08/27 10:10:04;;;;;;;2.47;0.82;;;19.50;84.40;;;;;;5050828;28;20017;-75
2021/08/27 10:12:32;;;;;;;1.20;0.63;;;19.60;83.80;;;;;;5051107;28;20092;-75
2021/08/27 10:14:59;;;;;;;2.72;0.80;;;19.80;83.30;;;;;;5050824;28;20102;-75
2021/08/27 10:17:26;;;;;;;1.50;0.75;;;19.80;82.70;;;;;;5051036;28;20029;-75
2021/08/27 10:19:52;;;;;;;1.35;0.60;;;19.60;83.00;;;;;;5050736;28;20044;-75
2021/08/27 10:22:18;;;;;;;3.40;1.00;;;19.30;85.00;;;;;;5051372;28;20090;-76
2021/08/27 10:24:46;;;;;;;1.50;0.55;;;18.70;86.70;;;;;;5051224;28;20354;-76
2021/08/27 10:27:14;;;;;;;1.55;0.80;;;18.30;88.60;;;;;;5049356;28;20031;-76
2021/08/27 10:29:56;;;;;;;1.52;0.73;;;18.10;90.10;;;;;;5053552;28;20066;-77
2021/08/27 10:32:40;;;;;;;2.95;0.60;;;17.90;90.50;;;;;;5054573;28;20025;-76
2021/08/27 10:35:24;;;;;;;4.32;1.10;;;17.80;90.90;;;;;;5052697;28;20017;-77
2021/08/27 10:37:50;;;;;;;3.03;0.85;;;17.70;91.10;;;;;;5053980;28;20471;-77
2021/08/27 10:40:22;;;;;;;2.65;0.80;;;17.60;91.40;;;;;;5053314;28;20019;-76
2021/08/27 10:42:55;;;;;;;1.63;0.60;;;17.40;91.80;;;;;;5053015;28;20067;-77
2021/08/27 10:45:30;;;;;;;3.47;0.90;;;17.40;92.00;;;;;;5054593;28;20048;-77
2021/08/27 10:48:16;;;;;;;2.42;1.13;;;17.50;92.30;;;;;;5052254;28;20469;-77
2021/08/27 10:50:44;;;;;;;3.30;0.80;;;17.50;92.10;;;;;;5054173;28;20452;-77
2021/08/27 10:53:32;;;;;;;2.65;0.77;;;17.70;92.10;;;;;;5053831;28;20032;-77
2021/08/27 10:56:03;;;;;;;5.38;0.82;;;18.00;92.00;;;;;;5069025;28;20024;-77
2021/08/27 10:58:52;;;;;;;1.42;0.70;;;18.20;91.80;;;;;;5054392;28;20025;-76
2021/08/27 11:01:38;;;;;;;3.63;1.30;;;18.20;91.60;;;;;;5052861;28;20070;-77
2021/08/27 11:04:25;;;;;;;3.05;0.60;;;18.20;91.80;;;;;;5053425;28;20017;-77
2021/08/27 11:06:52;;;;;;;2.15;0.85;;;18.10;91.90;;;;;;5054075;28;20025;-77
2021/08/27 11:09:26;;;;;;;0.52;0.50;;;18.10;92.10;;;;;;5054061;28;20017;-77
2021/08/27 11:12:10;;;;;;;1.52;0.52;;;18.10;92.20;;;;;;5053796;28;20457;-77
2021/08/27 11:14:40;;;;;;;2.20;0.70;;;18.20;92.30;;;;;;5054152;28;20029;-77
2021/08/27 11:17:07;;;;;;;1.80;0.70;;;18.30;92.10;;;;;;5053603;28;20487;-76
2021/08/27 11:19:50;;;;;;;2.20;0.55;;;18.40;92.00;;;;;;5053928;28;20095;-77
2021/08/27 11:22:23;;;;;;;2.95;1.40;;;18.60;91.90;;;;;;5053343;28;20017;-76
2021/08/27 11:25:04;;;;;;;3.50;0.80;;;18.60;91.80;;;;;;5053760;28;20078;-76
2021/08/27 11:27:35;;;;;;;2.55;0.70;;;18.80;91.60;;;;;;5052561;28;20024;-76
2021/08/27 11:30:28;;;;;;;2.97;0.70;;;18.80;91.40;;;;;;5053036;28;20043;-76
2021/08/27 11:32:55;;;;;;;2.75;0.70;;;19.00;91.30;;;;;;5053015;28;20055;-76
2021/08/27 11:35:22;;;;;;;1.85;0.70;;;19.10;91.20;;;;;;5053530;28;20028;-76
2021/08/27 11:37:57;;;;;;;4.50;0.63;;;19.20;91.10;;;;;;5051771;28;20097;-76
2021/08/27 11:40:24;;;;;;;2.95;0.75;;;19.30;90.90;;;;;;5053640;28;20013;-76
2021/08/27 11:42:56;;;;;;;2.42;0.75;;;19.20;90.80;;;;;;5053466;28;20044;-77
2021/08/27 11:45:25;;;;;;;4.65;1.10;;;19.30;90.80;;;;;;5052133;28;20428;-75
2021/08/27 11:47:56;;;;;;;1.33;0.77;;;19.40;90.40;;;;;;5053182;28;20020;-75
2021/08/27 11:50:27;;;;;;;2.53;1.00;;;19.50;90.00;;;;;;5053114;28;20021;-75
2021/08/27 11:52:58;;;;;;;1.60;0.70;;;19.60;89.90;;;;;;5052043;28;20029;-75
2021/08/27 11:55:24;;;;;;;;;;;19.80;89.30;;;;;;5051934;28;20017;-75
2021/08/27 11:57:58;;;;;;;3.85;1.05;;;20.10;88.70;;;;;;5051725;28;19904;-75
2021/08/27 12:00:33;;;;;;;2.90;0.95;;;20.20;87.70;;;;;;5051815;28;20061;-75
2021/08/27 12:02:58;;;;;;;5.45;1.17;;;20.20;87.40;;;;;;5047399;28;20095;-75
2021/08/27 12:05:26;;;;;;;2.70;0.80;;;20.10;87.30;;;;;;5031016;28;20466;-75
2021/08/27 12:07:57;;;;;;;2.83;0.90;;;20.00;87.50;;;;;;5040348;28;20131;-75
2021/08/27 12:10:25;;;;;;;3.30;0.77;;;20.10;87.60;;;;;;5039937;28;20431;-75
2021/08/27 12:12:53;;;;;;;1.48;0.70;;;20.20;87.50;;;;;;5045227;28;20094;-83
2021/08/27 12:15:40;;;;;;;1.95;1.00;;;20.30;87.00;;;;;;5030618;28;20022;-83
2021/08/27 12:18:11;;;;;;;2.85;1.00;;;20.40;86.20;;;;;;5030357;28;20568;-84
2021/08/27 12:20:38;;;;;;;;;;;20.40;86.00;;;;;;5049273;28;20107;-85
2021/08/27 12:23:13;;;;;;;9.23;1.38;;;20.40;86.00;;;;;;5050449;28;19931;-84
2021/08/27 12:25:45;;;;;;;2.35;0.90;;;20.50;85.30;;;;;;5050396;28;20051;-84
2021/08/27 12:28:16;;;;;;;3.97;0.70;;;20.50;84.70;;;;;;5065530;28;20044;-83
2021/08/27 12:30:49;;;;;;;2.63;0.80;;;20.60;84.40;;;;;;5047199;28;20052;-82
2021/08/27 12:33:16;;;;;;;4.78;1.13;;;20.70;83.60;;;;;;5052232;28;20025;-82
2021/08/27 12:35:42;;;;;;;5.97;0.95;;;20.70;83.60;;;;;;5033187;28;20033;-82
2021/08/27 12:38:08;;;;;;;3.55;1.23;;;20.90;83.40;;;;;;5048838;28;20153;-83
2021/08/27 12:40:35;;;;;;;2.22;0.80;;;20.90;83.00;;;;;;5049607;28;20021;-81
2021/08/27 12:43:12;;;;;;;3.80;1.10;;;20.80;83.00;;;;;;5047860;28;20449;-82
2021/08/27 12:45:46;;;;;;;3.50;0.90;;;20.40;83.80;;;;;;5049569;28;20028;-82
2021/08/27 12:48:29;;;;;;;3.10;0.90;;;20.10;84.60;;;;;;5047521;28;20037;-81
2021/08/27 12:50:57;;;;;;;1.15;0.57;;;20.10;85.30;;;;;;5049223;28;20044;-82
2021/08/27 12:53:32;;;;;;;3.08;0.85;;;20.00;85.30;;;;;;5050134;28;20458;-83
2021/08/27 12:56:19;;;;;;;3.28;0.85;;;20.20;85.20;;;;;;5048319;28;20528;-82
2021/08/27 12:58:51;;;;;;;3.83;1.15;;;20.30;84.50;;;;;;5048743;28;20028;-83